Morro Bay, CA

7:32 PM PST on February 28, 2015 (GMT -0800)
Santa Maria Public Airport / Captain G. Allan Hancock Field | Change Station
CLOSE
Current Station
Airport
Location: Santa Maria,
Elevation: 240 ft
Nearby Weather Stations

Elev 240 ft 34.90 °N, 120.45 °W | Updated 41 minutes ago

Mostly Cloudy
Mostly Cloudy
53 °F
Feels Like 53 °F
N
0
Wind Variable Wind from North

Today
High -- | Low -- °F
--% Chance of Precip.
Yesterday
High -- | Low -- °F
Precip. -- in
6:34 AM 5:57 PM
Waxing Gibbous, 82% visible
Pressure 29.86 in
Visibility 4.0 miles
Clouds Mostly Cloudy 5000 ft
Mostly Cloudy 7500 ft
Overcast 8500 ft
Dew Point 45 °F
Humidity 74%
Rainfall 0.02 in
Snow Depth Not available.
UV 0 out of 12
Pollen 8.30 out of 12
Air Quality Not available.
Flu Activity Not available.
METAR KSMX 010251Z 00000KT 4SM RA BKN050 BKN075 OVC085 12/07 A2985 RMK AO2 RAB34 SLP112 P0001 60001 T01170072 53012

More Conditions Fewer Conditions

Pressure 29.86 in
Visibility 4.0 miles
Clouds Mostly Cloudy 5000 ft
Mostly Cloudy 7500 ft
Overcast 8500 ft
Dew Point 45 °F
Humidity 74%
Rainfall 0.02 in
Snow Depth Not available.
UV 0 out of 12
Pollen 8.30 out of 12
Air Quality Not available.
Flu Activity Not available.
METAR KSMX 010251Z 00000KT 4SM RA BKN050 BKN075 OVC085 12/07 A2985 RMK AO2 RAB34 SLP112 P0001 60001 T01170072 53012

More Conditions Fewer Conditions

10-Day Weather Forecast

Almanac

Astronomy

Feb. 28, 2015 Rise Set
Actual Time
Civil Twilight
Nautical Twilight
Astronomical Twilight
Moon
Length of Visible Light
Length of Day
Tomorrow will be .
, % of the Moon is Illuminated

Today's Extremes

State Highs State Lows

Community

WunderPhotos

Upload Photos

1,801,284 photos uploaded!

WunderBlogs® & News

Nearby

Air Quality

  Air Quality AQ Index Pollutant
Not available.

Snow Depth

Station Depth Elevation

Earthquake Activity

City Distance Mag. Time & Date
Minimum magnitude displayed is 2.5.

Coastal Water Temperatures

Place Temperature

Nearby Weather Stations